createdAt,value
2023-05-19T00:02:00.328Z,17.30
2023-05-19T00:04:27.652Z,17.30
2023-05-19T00:06:54.577Z,17.30
2023-05-19T00:09:21.548Z,17.40
2023-05-19T00:11:48.511Z,17.40
2023-05-19T00:14:15.473Z,17.40
2023-05-19T00:16:42.861Z,17.40
2023-05-19T00:19:10.351Z,17.40
2023-05-19T00:21:40.470Z,17.40
2023-05-19T00:24:07.676Z,17.40
2023-05-19T00:26:34.686Z,17.40
2023-05-19T00:29:05.288Z,17.30
2023-05-19T00:31:34.086Z,17.30
2023-05-19T00:34:01.285Z,17.30
2023-05-19T00:36:28.691Z,17.30
2023-05-19T00:38:56.272Z,17.30
2023-05-19T00:41:23.143Z,17.30
2023-05-19T00:43:50.757Z,17.30
2023-05-19T00:46:18.545Z,17.30
2023-05-19T00:48:45.634Z,17.30
2023-05-19T00:51:14.818Z,17.20
2023-05-19T00:53:41.803Z,17.30
2023-05-19T00:56:08.868Z,17.30
2023-05-19T00:58:36.187Z,17.20
2023-05-19T01:01:05.282Z,17.20
2023-05-19T01:03:35.058Z,17.20
2023-05-19T01:06:05.264Z,17.20
2023-05-19T01:08:32.952Z,17.20
2023-05-19T01:10:59.940Z,17.20
2023-05-19T01:13:30.668Z,17.20
2023-05-19T01:16:07.076Z,17.20
2023-05-19T01:18:56.248Z,17.20
2023-05-19T01:21:31.447Z,17.20
2023-05-19T01:24:22.839Z,17.20
2023-05-19T01:27:09.281Z,17.20
2023-05-19T01:29:36.115Z,17.20
2023-05-19T01:32:04.653Z,17.20
2023-05-19T01:34:31.911Z,17.20
2023-05-19T01:37:00.849Z,17.20
2023-05-19T01:39:28.408Z,17.10
2023-05-19T01:41:55.924Z,17.10
2023-05-19T01:44:23.414Z,17.10
2023-05-19T01:46:50.947Z,17.10
2023-05-19T01:49:17.826Z,17.10
2023-05-19T01:51:45.359Z,17.10
2023-05-19T01:54:12.263Z,17.10
2023-05-19T01:56:39.343Z,17.10
2023-05-19T01:59:16.595Z,17.00
2023-05-19T02:01:43.480Z,17.00
2023-05-19T02:04:19.856Z,17.00
2023-05-19T02:06:53.632Z,17.00
2023-05-19T02:09:26.856Z,17.00
2023-05-19T02:12:05.343Z,16.90
2023-05-19T02:14:32.130Z,16.90
2023-05-19T02:17:00.715Z,16.90
2023-05-19T02:19:29.610Z,16.90
2023-05-19T02:21:56.700Z,16.90
2023-05-19T02:24:23.829Z,16.90
2023-05-19T02:26:52.172Z,16.90
2023-05-19T02:29:19.727Z,17.00
2023-05-19T02:31:46.738Z,16.90
2023-05-19T02:34:13.655Z,16.90
2023-05-19T02:36:43.129Z,16.90
2023-05-19T02:39:11.033Z,17.00
2023-05-19T02:41:38.395Z,16.90
2023-05-19T02:44:05.294Z,16.90
2023-05-19T02:46:32.805Z,16.90
2023-05-19T02:48:59.740Z,16.80
2023-05-19T02:51:27.845Z,16.80
2023-05-19T02:53:54.763Z,16.80
2023-05-19T02:56:21.806Z,16.80
2023-05-19T02:58:48.710Z,16.80
2023-05-19T03:01:16.602Z,16.80
2023-05-19T03:03:43.806Z,16.70
2023-05-19T03:06:10.764Z,16.70
2023-05-19T03:08:39.403Z,16.70
2023-05-19T03:11:08.448Z,16.70
2023-05-19T03:13:35.685Z,16.70
2023-05-19T03:16:03.510Z,16.70
2023-05-19T03:18:30.742Z,16.80
2023-05-19T03:20:57.702Z,16.70
2023-05-19T03:23:24.582Z,16.70
2023-05-19T03:25:51.567Z,16.70
2023-05-19T03:28:18.415Z,16.70
2023-05-19T03:30:45.513Z,16.60
2023-05-19T03:33:17.448Z,16.60
2023-05-19T03:35:45.641Z,16.60
2023-05-19T03:38:13.156Z,16.70
2023-05-19T03:40:46.174Z,16.70
2023-05-19T03:43:14.444Z,16.60
2023-05-19T03:45:46.772Z,16.60
2023-05-19T03:48:32.288Z,16.70
2023-05-19T03:51:17.595Z,16.70
2023-05-19T03:53:45.948Z,16.70
2023-05-19T03:56:14.009Z,16.80
2023-05-19T03:58:44.385Z,16.80
2023-05-19T04:01:11.685Z,16.80
2023-05-19T04:03:38.615Z,16.80
2023-05-19T04:06:05.565Z,16.80
2023-05-19T04:08:32.610Z,16.80
2023-05-19T04:10:59.516Z,16.80
2023-05-19T04:13:26.418Z,16.80
2023-05-19T04:15:53.336Z,16.80
2023-05-19T04:18:20.655Z,16.90
2023-05-19T04:20:47.772Z,16.90
2023-05-19T04:23:14.703Z,16.90
2023-05-19T04:25:42.218Z,17.00
2023-05-19T04:28:09.304Z,17.00
2023-05-19T04:30:38.839Z,17.00
2023-05-19T04:33:05.904Z,17.00
2023-05-19T04:35:33.541Z,17.00
2023-05-19T04:38:01.869Z,17.10
2023-05-19T04:40:32.278Z,17.10
2023-05-19T04:43:02.188Z,17.10
2023-05-19T04:45:30.175Z,17.20
2023-05-19T04:48:00.211Z,17.20
2023-05-19T04:50:28.692Z,17.20
2023-05-19T04:52:59.060Z,17.20
2023-05-19T04:55:26.789Z,17.30
2023-05-19T04:57:54.118Z,17.30
2023-05-19T05:00:22.242Z,17.40
2023-05-19T05:02:57.558Z,17.40
2023-05-19T05:05:26.148Z,17.50
2023-05-19T05:07:54.259Z,17.50
2023-05-19T05:10:23.279Z,17.50
2023-05-19T05:12:50.462Z,17.50
2023-05-19T05:15:17.552Z,17.50
2023-05-19T05:17:47.831Z,17.50
2023-05-19T05:20:15.332Z,17.50
2023-05-19T05:22:42.613Z,17.50
2023-05-19T05:25:10.393Z,17.60
2023-05-19T05:27:38.508Z,17.60
2023-05-19T05:30:07.888Z,17.70
2023-05-19T05:32:34.922Z,17.80
2023-05-19T05:35:06.395Z,17.70
2023-05-19T05:37:33.628Z,17.70
2023-05-19T05:40:00.521Z,17.80
2023-05-19T05:42:29.707Z,17.80
2023-05-19T05:44:57.388Z,17.80
2023-05-19T05:47:25.372Z,17.80
2023-05-19T05:49:53.557Z,17.80
2023-05-19T05:52:21.896Z,17.90
2023-05-19T05:54:49.565Z,17.90
2023-05-19T05:57:19.145Z,17.80
2023-05-19T05:59:47.175Z,17.90
2023-05-19T06:02:14.931Z,17.90
2023-05-19T06:04:41.892Z,18.00
2023-05-19T06:07:09.166Z,18.10
2023-05-19T06:09:38.360Z,18.10
2023-05-19T06:12:07.222Z,18.10
2023-05-19T06:14:39.877Z,18.20
2023-05-19T06:17:16.524Z,18.20
2023-05-19T06:19:43.844Z,18.30
2023-05-19T06:22:10.827Z,18.30
2023-05-19T06:24:39.464Z,18.40
2023-05-19T06:27:08.918Z,18.40
2023-05-19T06:29:35.876Z,18.30
2023-05-19T06:32:05.851Z,18.30
2023-05-19T06:34:32.838Z,18.40
2023-05-19T06:36:59.692Z,18.50
2023-05-19T06:39:26.903Z,18.50
2023-05-19T06:41:54.608Z,18.50
2023-05-19T06:44:44.021Z,18.50
2023-05-19T06:47:12.273Z,18.50
2023-05-19T06:49:39.502Z,18.50
2023-05-19T06:52:07.331Z,18.50
2023-05-19T06:54:34.427Z,18.50
2023-05-19T06:57:02.338Z,18.50
2023-05-19T06:59:29.354Z,18.50
2023-05-19T07:01:56.687Z,18.50
2023-05-19T07:04:23.789Z,18.60
2023-05-19T07:06:50.655Z,18.50
2023-05-19T07:09:18.353Z,18.60
2023-05-19T07:11:47.062Z,18.60
2023-05-19T07:14:14.000Z,18.60
2023-05-19T07:16:41.408Z,18.70
2023-05-19T07:19:08.580Z,18.70
2023-05-19T07:21:35.860Z,18.80
2023-05-19T07:24:02.692Z,18.80
2023-05-19T07:26:29.588Z,18.90
2023-05-19T07:28:57.813Z,19.10
2023-05-19T07:31:24.884Z,19.20
2023-05-19T07:33:54.361Z,19.20
2023-05-19T07:36:21.737Z,19.20
2023-05-19T07:38:48.819Z,19.20
2023-05-19T07:41:16.713Z,19.30
2023-05-19T07:43:43.695Z,19.50
2023-05-19T07:46:10.719Z,19.50
2023-05-19T07:48:37.663Z,19.60
2023-05-19T07:51:04.755Z,19.60
2023-05-19T07:53:31.725Z,19.60
2023-05-19T07:55:58.946Z,19.60
2023-05-19T07:58:27.169Z,19.60
2023-05-19T08:00:56.716Z,19.60
2023-05-19T08:03:23.983Z,19.70
2023-05-19T08:05:51.150Z,19.70
2023-05-19T08:08:19.688Z,19.80
2023-05-19T08:10:46.862Z,19.90
2023-05-19T08:13:13.865Z,19.90
2023-05-19T08:15:41.386Z,20.10
2023-05-19T08:18:08.682Z,20.40
2023-05-19T08:20:35.863Z,20.60
2023-05-19T08:23:03.116Z,20.70
2023-05-19T08:25:30.135Z,20.90
2023-05-19T08:27:57.093Z,20.80
2023-05-19T08:30:24.332Z,20.70
2023-05-19T08:32:51.900Z,20.70
2023-05-19T08:35:18.915Z,20.70
2023-05-19T08:37:46.031Z,20.80
2023-05-19T08:40:18.392Z,21.00
2023-05-19T08:42:46.008Z,21.10
2023-05-19T08:45:13.695Z,21.10
2023-05-19T08:47:47.134Z,21.10
2023-05-19T08:50:21.359Z,20.80
2023-05-19T08:52:53.752Z,20.70
2023-05-19T08:55:41.157Z,20.60
2023-05-19T08:58:09.850Z,20.40
2023-05-19T09:00:37.441Z,20.40
2023-05-19T09:03:17.724Z,20.50
2023-05-19T09:05:46.562Z,20.60
2023-05-19T09:08:13.874Z,20.60
2023-05-19T09:10:40.990Z,20.50
2023-05-19T09:13:08.131Z,20.40
2023-05-19T09:15:36.805Z,20.30
2023-05-19T09:18:10.933Z,20.00
2023-05-19T09:20:41.636Z,19.90
2023-05-19T09:23:13.683Z,20.00
2023-05-19T09:25:53.155Z,20.00
2023-05-19T09:28:30.673Z,19.90
2023-05-19T09:31:01.164Z,19.80
2023-05-19T09:33:28.683Z,19.70
2023-05-19T09:35:59.119Z,19.70
2023-05-19T09:38:29.408Z,19.70
2023-05-19T09:40:57.650Z,19.70
2023-05-19T09:43:24.583Z,19.70
2023-05-19T09:46:03.778Z,19.70
2023-05-19T09:48:30.878Z,19.60
2023-05-19T09:50:58.277Z,19.50
2023-05-19T09:53:25.601Z,19.50
2023-05-19T09:55:59.474Z,19.50
2023-05-19T09:58:27.107Z,19.60
2023-05-19T10:00:54.894Z,19.60
2023-05-19T10:03:26.366Z,19.60
2023-05-19T10:05:54.793Z,19.60
2023-05-19T10:08:24.515Z,19.70
2023-05-19T10:10:51.660Z,19.80
2023-05-19T10:13:19.562Z,19.90
2023-05-19T10:15:57.959Z,20.00
2023-05-19T10:18:27.521Z,20.10
2023-05-19T10:20:54.821Z,20.20
2023-05-19T10:23:22.534Z,20.30
2023-05-19T10:25:52.484Z,20.40
2023-05-19T10:28:23.631Z,20.60
2023-05-19T10:30:54.291Z,20.70
2023-05-19T10:33:28.923Z,20.80
2023-05-19T10:36:18.344Z,20.90
2023-05-19T10:39:05.564Z,21.00
2023-05-19T10:42:01.166Z,21.10
2023-05-19T10:45:05.552Z,21.20
2023-05-19T10:47:36.150Z,21.30
2023-05-19T10:50:06.687Z,21.70
2023-05-19T10:52:37.778Z,22.00
2023-05-19T10:55:08.729Z,22.20
2023-05-19T10:57:36.796Z,22.40
2023-05-19T11:00:25.624Z,22.50
2023-05-19T11:02:56.474Z,22.60
2023-05-19T11:05:30.153Z,22.80
2023-05-19T11:08:05.785Z,22.90
2023-05-19T11:10:32.960Z,23.00
2023-05-19T11:13:00.578Z,23.10
2023-05-19T11:15:28.516Z,23.00
2023-05-19T11:17:55.464Z,22.70
2023-05-19T11:20:26.498Z,22.60
2023-05-19T11:23:06.389Z,22.30
2023-05-19T11:25:49.673Z,22.10
2023-05-19T11:28:20.763Z,21.70
2023-05-19T11:30:50.713Z,21.40
2023-05-19T11:33:21.566Z,21.40
2023-05-19T11:35:50.411Z,21.40
2023-05-19T11:38:19.149Z,21.40
2023-05-19T11:40:48.163Z,21.20
2023-05-19T11:43:16.248Z,21.00
2023-05-19T11:45:43.348Z,21.10
2023-05-19T11:48:13.449Z,21.00
2023-05-19T11:50:44.234Z,21.10
2023-05-19T11:53:15.198Z,20.90
2023-05-19T11:55:44.589Z,20.90
2023-05-19T11:58:11.601Z,20.80
2023-05-19T12:00:41.267Z,20.60
2023-05-19T12:03:09.423Z,20.40
2023-05-19T12:05:45.479Z,20.30
2023-05-19T12:08:13.167Z,20.10
2023-05-19T12:10:41.020Z,20.00
2023-05-19T12:13:11.337Z,19.90
2023-05-19T12:15:39.034Z,19.90
2023-05-19T12:18:06.822Z,19.90
2023-05-19T12:20:36.144Z,19.90
2023-05-19T12:23:04.256Z,19.80
2023-05-19T12:25:32.255Z,19.80
2023-05-19T12:28:02.826Z,20.00
2023-05-19T12:30:31.586Z,20.10
2023-05-19T12:32:58.908Z,20.20
2023-05-19T12:35:37.771Z,20.30
2023-05-19T12:38:07.791Z,20.40
2023-05-19T12:40:36.217Z,20.40
2023-05-19T12:43:04.049Z,20.50
2023-05-19T12:45:39.860Z,20.50
2023-05-19T12:48:12.282Z,20.30
2023-05-19T12:50:39.719Z,20.10
2023-05-19T12:53:10.644Z,19.90
2023-05-19T12:55:43.022Z,19.90
2023-05-19T12:58:11.625Z,19.90
2023-05-19T13:00:43.752Z,19.80
2023-05-19T13:03:22.214Z,19.80
2023-05-19T13:05:51.291Z,19.80
2023-05-19T13:08:20.642Z,19.80
2023-05-19T13:10:49.229Z,19.80
2023-05-19T13:13:17.149Z,19.80
2023-05-19T13:15:45.788Z,19.90
2023-05-19T13:18:13.812Z,20.00
2023-05-19T13:20:42.632Z,20.10
2023-05-19T13:23:14.038Z,20.10
2023-05-19T13:25:42.108Z,20.00
2023-05-19T13:28:09.372Z,19.90
2023-05-19T13:30:38.639Z,19.90
2023-05-19T13:33:06.261Z,19.80
2023-05-19T13:35:39.532Z,19.80
2023-05-19T13:38:07.923Z,19.80
2023-05-19T13:40:35.473Z,19.70
2023-05-19T13:43:04.136Z,19.70
2023-05-19T13:45:31.476Z,19.60
2023-05-19T13:47:58.541Z,19.70
2023-05-19T13:50:25.980Z,19.80
2023-05-19T13:52:53.835Z,19.80
2023-05-19T13:55:21.074Z,19.80
2023-05-19T13:57:48.886Z,19.80
2023-05-19T14:00:17.650Z,19.90
2023-05-19T14:02:44.818Z,20.00
2023-05-19T14:05:11.878Z,19.90
2023-05-19T14:07:38.909Z,19.80
2023-05-19T14:10:06.945Z,19.70
2023-05-19T14:12:46.993Z,19.70
2023-05-19T14:15:22.749Z,19.60
2023-05-19T14:17:49.776Z,19.60
2023-05-19T14:20:16.806Z,19.60
2023-05-19T14:22:43.796Z,19.50
2023-05-19T14:25:11.018Z,19.50
2023-05-19T14:27:39.967Z,19.50
2023-05-19T14:30:08.151Z,19.50
2023-05-19T14:32:35.343Z,19.50
2023-05-19T14:35:02.642Z,19.60
2023-05-19T14:37:31.734Z,19.60
2023-05-19T14:39:59.261Z,19.60
2023-05-19T14:42:26.288Z,19.60
2023-05-19T14:44:53.330Z,19.60
2023-05-19T14:47:20.298Z,19.60
2023-05-19T14:49:47.427Z,19.40
2023-05-19T14:52:14.397Z,19.10
2023-05-19T14:54:41.332Z,18.80
2023-05-19T14:57:08.342Z,18.50
2023-05-19T14:59:38.676Z,18.30
2023-05-19T15:02:06.114Z,18.00
2023-05-19T15:04:33.097Z,17.80
2023-05-19T15:09:29.886Z,17.70
2023-05-19T15:11:58.800Z,17.70
2023-05-19T15:14:27.136Z,17.60
2023-05-19T15:16:54.886Z,17.60
2023-05-19T15:19:22.036Z,17.60
2023-05-19T15:21:50.630Z,17.50
2023-05-19T15:24:17.668Z,17.40
2023-05-19T15:26:45.339Z,17.30
2023-05-19T15:29:12.330Z,17.20
2023-05-19T15:31:39.362Z,17.20
2023-05-19T15:34:06.456Z,17.20
2023-05-19T15:36:33.405Z,17.30
2023-05-19T15:39:00.422Z,17.30
2023-05-19T15:41:27.438Z,17.40
2023-05-19T15:43:54.454Z,17.40
2023-05-19T15:46:21.568Z,17.30
2023-05-19T15:48:48.596Z,17.20
2023-05-19T15:51:15.940Z,17.20
2023-05-19T15:53:42.986Z,17.20
2023-05-19T15:56:10.120Z,17.10
2023-05-19T15:58:37.112Z,17.20
2023-05-19T16:01:04.253Z,17.20
2023-05-19T16:03:32.330Z,17.20
2023-05-19T16:05:59.551Z,17.30
2023-05-19T16:08:27.032Z,17.30
2023-05-19T16:10:55.184Z,17.40
2023-05-19T16:13:22.470Z,17.40
2023-05-19T16:15:49.511Z,17.40
2023-05-19T16:18:16.711Z,17.40
2023-05-19T16:20:44.199Z,17.30
2023-05-19T16:23:11.206Z,17.20
2023-05-19T16:25:38.248Z,17.20
2023-05-19T16:28:05.705Z,17.10
2023-05-19T16:30:32.969Z,17.10
2023-05-19T16:33:00.197Z,17.10
2023-05-19T16:35:30.218Z,17.10
2023-05-19T16:37:57.196Z,17.10
2023-05-19T16:40:24.323Z,17.10
2023-05-19T16:42:53.413Z,17.20
2023-05-19T16:45:20.512Z,17.20
2023-05-19T16:47:47.590Z,17.20
2023-05-19T16:50:14.716Z,17.30
2023-05-19T16:52:41.697Z,17.30
2023-05-19T16:55:09.065Z,17.30
2023-05-19T16:57:35.996Z,17.30
2023-05-19T17:00:03.719Z,17.30
2023-05-19T17:02:30.976Z,17.30
2023-05-19T17:04:58.019Z,17.30
2023-05-19T17:07:25.065Z,17.30
2023-05-19T17:09:53.948Z,17.20
2023-05-19T17:12:22.918Z,17.20
2023-05-19T17:14:52.079Z,17.20
2023-05-19T17:17:19.206Z,17.20
2023-05-19T17:19:46.820Z,17.10
2023-05-19T17:22:13.902Z,17.10
2023-05-19T17:24:42.421Z,17.10
2023-05-19T17:27:09.349Z,17.10
2023-05-19T17:29:36.879Z,17.00
2023-05-19T17:32:04.464Z,17.00
2023-05-19T17:34:31.460Z,16.90
2023-05-19T17:36:58.412Z,16.90
2023-05-19T17:39:25.599Z,16.90
2023-05-19T17:41:52.590Z,16.80
2023-05-19T17:44:20.427Z,16.80
2023-05-19T17:46:47.464Z,16.80
2023-05-19T17:49:15.312Z,16.70
2023-05-19T17:51:42.625Z,16.70
2023-05-19T17:54:09.710Z,16.80
2023-05-19T17:56:42.480Z,16.70
2023-05-19T17:59:09.777Z,16.70
2023-05-19T18:01:37.114Z,16.60
2023-05-19T18:04:04.498Z,16.60
2023-05-19T18:06:32.220Z,16.60
2023-05-19T18:09:00.970Z,16.60
2023-05-19T18:11:28.269Z,16.60
2023-05-19T18:13:55.304Z,16.50
2023-05-19T18:16:22.324Z,16.60
2023-05-19T18:18:50.624Z,16.60
2023-05-19T18:21:18.097Z,16.60
2023-05-19T18:23:45.780Z,16.50
2023-05-19T18:26:13.658Z,16.50
2023-05-19T18:28:41.769Z,16.40
2023-05-19T18:31:10.982Z,16.40
2023-05-19T18:33:37.922Z,16.40
2023-05-19T18:36:05.035Z,16.40
2023-05-19T18:38:31.982Z,16.40
2023-05-19T18:41:00.742Z,16.40
2023-05-19T18:43:30.120Z,16.40
2023-05-19T18:45:57.249Z,16.40
2023-05-19T18:48:25.647Z,16.40
2023-05-19T18:50:52.650Z,16.40
2023-05-19T18:53:22.664Z,16.40
2023-05-19T18:55:49.761Z,16.40
2023-05-19T18:58:20.352Z,16.40
2023-05-19T19:00:47.463Z,16.30
2023-05-19T19:03:15.028Z,16.30
2023-05-19T19:05:42.158Z,16.30
2023-05-19T19:08:09.152Z,16.30
2023-05-19T19:10:39.120Z,16.30
2023-05-19T19:13:06.616Z,16.30
2023-05-19T19:15:33.560Z,16.30
2023-05-19T19:18:00.609Z,16.30
2023-05-19T19:20:27.708Z,16.20
2023-05-19T19:22:54.742Z,16.20
2023-05-19T19:25:23.569Z,16.20
2023-05-19T19:27:51.227Z,16.20
2023-05-19T19:30:18.401Z,16.10
2023-05-19T19:32:45.749Z,16.10
2023-05-19T19:35:12.806Z,16.10
2023-05-19T19:37:39.739Z,16.10
2023-05-19T19:40:07.248Z,16.10
2023-05-19T19:42:34.350Z,16.10
2023-05-19T19:45:01.358Z,16.10
2023-05-19T19:47:28.353Z,16.10
2023-05-19T19:49:55.983Z,16.00
2023-05-19T19:52:22.953Z,16.00
2023-05-19T19:54:49.890Z,16.00
2023-05-19T19:57:17.764Z,16.00
2023-05-19T19:59:44.885Z,16.00
2023-05-19T20:02:11.915Z,16.00
2023-05-19T20:04:39.093Z,16.00
2023-05-19T20:07:06.682Z,16.00
2023-05-19T20:09:33.613Z,16.00
2023-05-19T20:12:00.877Z,16.00
2023-05-19T20:14:27.821Z,16.00
2023-05-19T20:16:54.822Z,16.00
2023-05-19T20:19:27.762Z,16.00
2023-05-19T20:21:54.890Z,15.90
2023-05-19T20:24:21.871Z,15.90
2023-05-19T20:26:48.813Z,15.90
2023-05-19T20:29:15.985Z,15.90
2023-05-19T20:31:42.984Z,15.90
2023-05-19T20:34:09.942Z,15.90
2023-05-19T20:36:36.928Z,15.90
2023-05-19T20:39:04.001Z,15.90
2023-05-19T20:41:31.594Z,15.90
2023-05-19T20:43:58.624Z,15.80
2023-05-19T20:46:25.703Z,15.80
2023-05-19T20:48:52.664Z,15.90
2023-05-19T20:51:19.731Z,15.80
2023-05-19T20:53:46.648Z,15.80
2023-05-19T20:56:14.035Z,15.80
2023-05-19T20:58:41.155Z,15.80
2023-05-19T21:01:09.240Z,15.80
2023-05-19T21:03:36.490Z,15.80
2023-05-19T21:06:03.601Z,15.80
2023-05-19T21:08:30.593Z,15.80
2023-05-19T21:10:57.583Z,15.80
2023-05-19T21:13:24.591Z,15.80
2023-05-19T21:15:51.556Z,15.80
2023-05-19T21:18:18.490Z,15.80
2023-05-19T21:20:45.490Z,15.90
2023-05-19T21:23:12.470Z,15.90
2023-05-19T21:25:39.979Z,15.90
2023-05-19T21:28:06.946Z,15.90
2023-05-19T21:30:34.072Z,16.00
2023-05-19T21:33:01.214Z,16.00
2023-05-19T21:35:28.210Z,16.00
2023-05-19T21:37:55.780Z,16.00
2023-05-19T21:40:22.894Z,16.00
2023-05-19T21:42:49.896Z,16.00
2023-05-19T21:45:16.860Z,16.00
2023-05-19T21:47:43.827Z,16.00
2023-05-19T21:50:11.099Z,16.00
2023-05-19T21:52:38.616Z,16.00
2023-05-19T21:55:06.212Z,16.00
2023-05-19T21:57:33.229Z,16.00
2023-05-19T22:00:00.184Z,16.10
2023-05-19T22:02:27.323Z,16.10
2023-05-19T22:04:54.300Z,16.10
2023-05-19T22:07:26.798Z,16.20
2023-05-19T22:09:54.140Z,16.30
2023-05-19T22:12:21.238Z,16.40
2023-05-19T22:14:48.208Z,16.40
2023-05-19T22:17:15.452Z,16.40
2023-05-19T22:19:42.374Z,16.50
2023-05-19T22:22:14.232Z,16.50
2023-05-19T22:24:42.711Z,16.50
2023-05-19T22:27:09.783Z,16.60
2023-05-19T22:29:38.631Z,16.60
2023-05-19T22:32:09.208Z,16.60
2023-05-19T22:34:36.278Z,16.60
2023-05-19T22:37:03.328Z,16.60
2023-05-19T22:39:30.298Z,16.70
2023-05-19T22:41:57.234Z,16.70
2023-05-19T22:44:24.202Z,16.70
2023-05-19T22:46:51.156Z,16.70
2023-05-19T22:49:18.113Z,16.70
2023-05-19T22:51:45.105Z,16.80
2023-05-19T22:54:12.082Z,16.80
2023-05-19T22:56:39.053Z,16.80
2023-05-19T22:59:06.218Z,16.80
2023-05-19T23:01:33.202Z,16.80
2023-05-19T23:04:00.286Z,16.90
2023-05-19T23:06:27.266Z,16.80
2023-05-19T23:09:05.351Z,16.80
2023-05-19T23:11:32.297Z,16.80
2023-05-19T23:13:59.349Z,16.70
2023-05-19T23:16:26.422Z,16.70
2023-05-19T23:18:53.494Z,16.70
2023-05-19T23:21:20.539Z,16.70
2023-05-19T23:23:47.575Z,16.70
2023-05-19T23:26:14.507Z,16.70
2023-05-19T23:28:44.889Z,16.70
2023-05-19T23:31:11.848Z,16.70
2023-05-19T23:33:38.956Z,16.70
2023-05-19T23:36:10.589Z,16.80
2023-05-19T23:38:37.852Z,16.80
2023-05-19T23:41:05.221Z,16.80
2023-05-19T23:43:35.500Z,16.90
2023-05-19T23:46:02.594Z,16.90
2023-05-19T23:48:30.048Z,16.90
2023-05-19T23:50:58.190Z,16.90
2023-05-19T23:53:25.336Z,16.90
2023-05-19T23:55:52.531Z,16.90
2023-05-19T23:58:19.535Z,16.90
